Time;durP1;ratioP1;P1;durP2;ratioP2;P2;SDS_P1;SDS_P2;PMS_P1;PMS_P2;Temp;Humidity;BMP_temperature;BMP_pressure;BME280_temperature;BME280_humidity;BME280_pressure;Samples;Min_cycle;Max_cycle;Signal;HPM_P1;HPM_P2
2022/07/13 00:01:14;;;;;;;3.90;1.80;;;;;;;;;;5038909;28;20071;-78
2022/07/13 00:03:39;;;;;;;2.88;1.40;;;;;;;;;;5020767;28;20398;-79
2022/07/13 00:06:04;;;;;;;9.40;1.60;;;;;;;;;;5036337;28;20029;-78
2022/07/13 00:08:30;;;;;;;5.93;1.67;;;;;;;;;;5036051;28;20025;-77
2022/07/13 00:10:55;;;;;;;4.07;1.50;;;;;;;;;;5018530;28;20116;-78
2022/07/13 00:13:20;;;;;;;3.93;1.50;;;;;;;;;;5037167;28;20029;-79
2022/07/13 00:15:45;;;;;;;4.38;1.70;;;;;;;;;;5017941;28;20258;-78
2022/07/13 00:18:11;;;;;;;5.20;1.70;;;;;;;;;;5037333;28;20029;-79
2022/07/13 00:20:36;;;;;;;1.83;1.40;;;;;;;;;;5021844;28;20247;-79
2022/07/13 00:23:01;;;;;;;5.00;1.55;;;;;;;;;;5036800;28;20112;-79
2022/07/13 00:25:26;;;;;;;2.00;1.40;;;;;;;;;;5033577;28;20018;-71
2022/07/13 00:27:52;;;;;;;5.37;1.33;;;;;;;;;;5033503;28;20079;-71
2022/07/13 00:30:17;;;;;;;4.77;1.53;;;;;;;;;;5037250;28;20251;-71
2022/07/13 00:32:42;;;;;;;2.67;1.55;;;;;;;;;;5036758;28;20273;-71
2022/07/13 00:35:08;;;;;;;5.23;1.60;;;;;;;;;;5037043;28;20034;-71
2022/07/13 00:37:33;;;;;;;4.55;1.42;;;;;;;;;;5037294;28;20254;-72
2022/07/13 00:39:58;;;;;;;3.40;1.50;;;;;;;;;;5036911;28;20052;-71
2022/07/13 00:42:23;;;;;;;5.25;1.60;;;;;;;;;;5037622;28;20281;-71
2022/07/13 00:44:49;;;;;;;4.32;1.70;;;;;;;;;;5037228;28;20017;-71
2022/07/13 00:47:15;;;;;;;4.78;1.40;;;;;;;;;;5036913;28;20398;-71
2022/07/13 00:49:41;;;;;;;4.45;1.48;;;;;;;;;;5028841;28;20405;-71
2022/07/13 00:52:06;;;;;;;2.92;1.35;;;;;;;;;;5037091;28;20112;-71
2022/07/13 00:54:32;;;;;;;2.83;1.60;;;;;;;;;;5036685;28;20467;-71
2022/07/13 00:56:57;;;;;;;5.20;1.52;;;;;;;;;;5036741;28;20029;-70
2022/07/13 00:59:24;;;;;;;2.42;1.30;;;;;;;;;;5036581;28;20033;-70
2022/07/13 01:01:49;;;;;;;2.78;1.40;;;;;;;;;;5036998;28;20443;-71
2022/07/13 01:04:14;;;;;;;4.57;1.80;;;;;;;;;;5036719;28;20042;-72
2022/07/13 01:06:40;;;;;;;4.45;1.60;;;;;;;;;;5036478;28;20025;-72
2022/07/13 01:09:05;;;;;;;2.05;1.40;;;;;;;;;;5036399;28;20386;-71
2022/07/13 01:11:32;;;;;;;3.22;1.52;;;;;;;;;;5036409;28;20044;-72
2022/07/13 01:13:57;;;;;;;3.90;1.90;;;;;;;;;;5036284;28;20054;-71
2022/07/13 01:16:23;;;;;;;3.63;1.65;;;;;;;;;;5036610;28;20035;-71
2022/07/13 01:18:50;;;;;;;7.13;1.70;;;;;;;;;;5037230;28;20347;-71
2022/07/13 01:21:15;;;;;;;2.20;1.50;;;;;;;;;;5018555;28;20030;-71
2022/07/13 01:23:41;;;;;;;2.00;1.40;;;;;;;;;;5036403;28;20033;-71
2022/07/13 01:26:07;;;;;;;2.70;1.60;;;;;;;;;;5036180;28;20436;-71
2022/07/13 01:28:32;;;;;;;2.80;1.48;;;;;;;;;;5036018;28;20022;-71
2022/07/13 01:30:58;;;;;;;3.20;1.45;;;;;;;;;;5035998;28;20032;-71
2022/07/13 01:33:23;;;;;;;1.48;1.30;;;;;;;;;;5035952;28;20057;-71
2022/07/13 01:35:48;;;;;;;4.22;1.52;;;;;;;;;;5035922;28;20033;-71
2022/07/13 01:38:14;;;;;;;1.88;1.45;;;;;;;;;;5035805;28;20029;-71
2022/07/13 01:40:41;;;;;;;2.47;1.52;;;;;;;;;;5034922;28;20017;-70
2022/07/13 01:43:07;;;;;;;3.05;1.40;;;;;;;;;;5035967;28;20024;-73
2022/07/13 01:45:32;;;;;;;3.40;1.63;;;;;;;;;;5035951;28;20029;-71
2022/07/13 01:47:57;;;;;;;3.40;1.47;;;;;;;;;;5035683;28;20033;-72
2022/07/13 01:50:24;;;;;;;1.83;1.40;;;;;;;;;;5035599;28;20270;-70
2022/07/13 01:52:49;;;;;;;4.47;1.90;;;;;;;;;;5035911;28;20349;-71
2022/07/13 01:55:15;;;;;;;2.85;1.38;;;;;;;;;;5035527;28;20109;-71
2022/07/13 01:57:41;;;;;;;1.60;1.30;;;;;;;;;;5035588;28;20171;-71
2022/07/13 02:00:11;;;;;;;3.03;1.50;;;;;;;;;;5035384;28;20489;-71
2022/07/13 02:02:36;;;;;;;2.55;1.50;;;;;;;;;;5035795;28;20021;-71
2022/07/13 02:05:02;;;;;;;2.83;1.70;;;;;;;;;;5035738;28;20044;-70
2022/07/13 02:07:27;;;;;;;3.53;1.33;;;;;;;;;;5035321;28;20051;-71
2022/07/13 02:09:52;;;;;;;2.70;1.60;;;;;;;;;;5035345;28;20044;-70
2022/07/13 02:12:18;;;;;;;3.90;1.50;;;;;;;;;;5017565;28;20269;-71
2022/07/13 02:14:43;;;;;;;2.60;1.30;;;;;;;;;;5035222;28;20048;-71
2022/07/13 02:17:09;;;;;;;3.00;1.40;;;;;;;;;;5035907;28;20025;-71
2022/07/13 02:19:34;;;;;;;2.80;1.23;;;;;;;;;;5035054;28;20026;-70
2022/07/13 02:21:59;;;;;;;3.55;1.33;;;;;;;;;;5035093;28;20029;-71
2022/07/13 02:24:25;;;;;;;3.20;1.30;;;;;;;;;;5035071;28;20017;-70
2022/07/13 02:26:50;;;;;;;3.27;1.60;;;;;;;;;;5035006;28;20255;-71
2022/07/13 02:29:15;;;;;;;1.80;1.33;;;;;;;;;;5034881;28;20254;-71
2022/07/13 02:31:41;;;;;;;2.35;1.50;;;;;;;;;;5035095;28;20053;-71
2022/07/13 02:34:07;;;;;;;4.82;1.58;;;;;;;;;;5033529;28;20051;-72
2022/07/13 02:36:32;;;;;;;1.92;1.20;;;;;;;;;;5034860;28;20032;-72
2022/07/13 02:38:57;;;;;;;5.22;1.50;;;;;;;;;;5033783;28;20491;-71
2022/07/13 02:41:22;;;;;;;3.43;1.43;;;;;;;;;;5035318;28;20385;-71
2022/07/13 02:43:48;;;;;;;4.00;1.30;;;;;;;;;;5034729;28;20698;-71
2022/07/13 02:46:14;;;;;;;2.85;1.40;;;;;;;;;;5033507;28;20707;-71
2022/07/13 02:48:39;;;;;;;2.15;1.40;;;;;;;;;;5034363;28;20032;-71
2022/07/13 02:51:04;;;;;;;3.00;1.13;;;;;;;;;;5034864;28;20467;-71
2022/07/13 02:53:29;;;;;;;1.85;1.27;;;;;;;;;;5034394;28;20120;-69
2022/07/13 02:55:55;;;;;;;4.57;1.40;;;;;;;;;;5034599;28;20024;-72
2022/07/13 02:58:20;;;;;;;1.67;1.23;;;;;;;;;;5034681;28;20033;-73
2022/07/13 03:00:45;;;;;;;2.83;1.30;;;;;;;;;;5034304;28;20266;-70
2022/07/13 03:03:10;;;;;;;1.90;1.20;;;;;;;;;;5034820;28;20333;-71
2022/07/13 03:05:36;;;;;;;3.57;1.50;;;;;;;;;;5034320;28;20262;-71
2022/07/13 03:08:01;;;;;;;2.67;1.50;;;;;;;;;;5034213;28;20293;-72
2022/07/13 03:10:26;;;;;;;3.30;1.40;;;;;;;;;;5016923;28;20731;-71
2022/07/13 03:12:51;;;;;;;3.30;1.70;;;;;;;;;;5034295;28;20751;-71
2022/07/13 03:15:16;;;;;;;2.73;1.40;;;;;;;;;;5034121;28;20285;-72
2022/07/13 03:17:42;;;;;;;4.87;1.30;;;;;;;;;;5034394;28;20628;-71
2022/07/13 03:20:08;;;;;;;4.47;1.50;;;;;;;;;;5016759;28;20628;-71
2022/07/13 03:22:34;;;;;;;4.68;1.52;;;;;;;;;;5033728;28;20029;-72
2022/07/13 03:24:59;;;;;;;2.00;1.33;;;;;;;;;;5034158;28;20040;-71
2022/07/13 03:27:24;;;;;;;3.23;1.60;;;;;;;;;;5033931;28;20032;-72
2022/07/13 03:29:50;;;;;;;2.53;1.67;;;;;;;;;;5034021;28;20259;-71
2022/07/13 03:32:15;;;;;;;2.67;1.38;;;;;;;;;;5034077;28;20257;-71
2022/07/13 03:34:40;;;;;;;2.63;1.17;;;;;;;;;;5033715;28;20075;-71
2022/07/13 03:37:07;;;;;;;8.52;1.48;;;;;;;;;;5033635;28;20490;-71
2022/07/13 03:39:33;;;;;;;2.42;1.30;;;;;;;;;;5032346;28;20033;-70
2022/07/13 03:41:58;;;;;;;2.88;1.63;;;;;;;;;;5033835;28;20029;-71
2022/07/13 03:44:23;;;;;;;3.47;1.40;;;;;;;;;;5033577;28;20474;-71
2022/07/13 03:46:48;;;;;;;2.17;1.30;;;;;;;;;;5034125;28;20265;-72
2022/07/13 03:49:13;;;;;;;4.30;1.47;;;;;;;;;;5025394;28;20274;-71
2022/07/13 03:51:40;;;;;;;2.87;1.50;;;;;;;;;;5033589;28;20265;-71
2022/07/13 03:54:06;;;;;;;7.25;1.10;;;;;;;;;;5015632;28;20381;-71
2022/07/13 03:56:31;;;;;;;5.40;1.40;;;;;;;;;;5033652;28;20467;-70
2022/07/13 03:58:57;;;;;;;2.00;1.20;;;;;;;;;;5033363;28;20071;-71
2022/07/13 04:01:22;;;;;;;1.88;1.35;;;;;;;;;;5033520;28;20030;-71
2022/07/13 04:03:47;;;;;;;1.45;1.23;;;;;;;;;;5032889;28;20037;-71
2022/07/13 04:06:12;;;;;;;3.28;1.40;;;;;;;;;;5033533;28;20090;-71
2022/07/13 04:08:38;;;;;;;4.43;1.30;;;;;;;;;;5033247;28;20045;-71
2022/07/13 04:11:03;;;;;;;4.93;1.40;;;;;;;;;;5033219;28;20263;-71
2022/07/13 04:13:28;;;;;;;3.63;1.27;;;;;;;;;;5033234;28;20259;-71
2022/07/13 04:15:53;;;;;;;2.63;1.30;;;;;;;;;;5033072;28;20037;-72
2022/07/13 04:18:21;;;;;;;2.40;1.40;;;;;;;;;;5033355;28;20258;-72
2022/07/13 04:20:47;;;;;;;2.78;1.50;;;;;;;;;;5032996;28;20258;-71
2022/07/13 04:23:12;;;;;;;2.20;1.50;;;;;;;;;;5033030;28;20041;-71
2022/07/13 04:25:37;;;;;;;7.60;1.70;;;;;;;;;;5031769;28;20022;-71
2022/07/13 04:28:02;;;;;;;2.80;1.60;;;;;;;;;;5033042;28;20266;-71
2022/07/13 04:30:28;;;;;;;3.00;1.23;;;;;;;;;;5032905;28;20255;-71
2022/07/13 04:32:53;;;;;;;2.70;1.58;;;;;;;;;;5032815;28;20030;-70
2022/07/13 04:35:19;;;;;;;4.18;1.42;;;;;;;;;;5033358;28;20120;-71
2022/07/13 04:37:44;;;;;;;2.38;1.42;;;;;;;;;;5033175;28;20124;-71
2022/07/13 04:40:10;;;;;;;2.13;1.50;;;;;;;;;;5032841;28;20471;-71
2022/07/13 04:42:35;;;;;;;1.50;1.20;;;;;;;;;;5032835;28;20789;-72
2022/07/13 04:45:00;;;;;;;3.90;1.40;;;;;;;;;;5033397;28;20021;-71
2022/07/13 04:47:26;;;;;;;5.67;1.30;;;;;;;;;;5032803;28;20494;-71
2022/07/13 04:49:51;;;;;;;4.72;1.48;;;;;;;;;;5032828;28;20281;-70
2022/07/13 04:52:17;;;;;;;2.07;1.30;;;;;;;;;;5032795;28;20124;-71
2022/07/13 04:54:42;;;;;;;2.90;1.50;;;;;;;;;;5032668;28;20282;-71
2022/07/13 04:57:07;;;;;;;3.23;1.27;;;;;;;;;;5032744;28;20266;-71
2022/07/13 04:59:32;;;;;;;2.63;1.60;;;;;;;;;;5032994;28;20308;-71
2022/07/13 05:01:58;;;;;;;2.97;1.40;;;;;;;;;;5032900;28;20267;-71
2022/07/13 05:04:24;;;;;;;4.03;1.40;;;;;;;;;;5032740;28;20024;-71
2022/07/13 05:06:49;;;;;;;1.98;1.30;;;;;;;;;;5032672;28;20025;-71
2022/07/13 05:09:15;;;;;;;2.30;1.50;;;;;;;;;;5032967;28;20104;-72
2022/07/13 05:11:40;;;;;;;3.22;2.10;;;;;;;;;;5014915;28;20053;-72
2022/07/13 05:14:05;;;;;;;2.75;1.55;;;;;;;;;;5032509;28;20478;-71
2022/07/13 05:16:30;;;;;;;4.23;1.43;;;;;;;;;;5035496;28;20030;-72
2022/07/13 05:18:57;;;;;;;4.10;1.60;;;;;;;;;;5036224;28;20255;-71
2022/07/13 05:21:22;;;;;;;3.10;1.33;;;;;;;;;;5036236;28;20628;-72
2022/07/13 05:23:47;;;;;;;4.13;1.37;;;;;;;;;;5036278;28;20034;-71
2022/07/13 05:26:12;;;;;;;4.40;1.38;;;;;;;;;;5036266;28;20754;-71
2022/07/13 05:28:38;;;;;;;6.13;1.60;;;;;;;;;;5036085;28;20099;-71
2022/07/13 05:31:03;;;;;;;5.28;1.60;;;;;;;;;;5034831;28;20325;-71
2022/07/13 05:33:28;;;;;;;5.00;1.55;;;;;;;;;;5036063;28;20052;-72
2022/07/13 05:35:54;;;;;;;4.73;1.47;;;;;;;;;;5035991;28;20033;-71
2022/07/13 05:38:19;;;;;;;7.10;1.70;;;;;;;;;;5035815;28;20305;-71
2022/07/13 05:40:45;;;;;;;2.42;1.65;;;;;;;;;;5036160;28;20057;-71
2022/07/13 05:43:10;;;;;;;9.65;1.73;;;;;;;;;;5035888;28;20028;-71
2022/07/13 05:45:36;;;;;;;5.43;1.50;;;;;;;;;;5035853;28;20092;-71
2022/07/13 05:48:01;;;;;;;3.40;1.63;;;;;;;;;;5035792;28;20048;-71
2022/07/13 05:50:26;;;;;;;2.93;1.50;;;;;;;;;;5034624;28;20308;-71
2022/07/13 05:52:51;;;;;;;4.25;1.55;;;;;;;;;;5034718;28;20247;-72
2022/07/13 05:55:17;;;;;;;5.18;1.75;;;;;;;;;;5034715;28;20513;-72
2022/07/13 05:57:44;;;;;;;6.03;1.58;;;;;;;;;;5034176;28;20025;-72
2022/07/13 06:00:13;;;;;;;3.50;1.40;;;;;;;;;;5034420;28;20100;-71
2022/07/13 06:02:42;;;;;;;4.55;1.58;;;;;;;;;;5016492;28;20022;-71
2022/07/13 06:05:08;;;;;;;4.20;1.40;;;;;;;;;;5034487;28;20017;-71
2022/07/13 06:07:34;;;;;;;3.42;1.50;;;;;;;;;;5034294;28;20033;-72
2022/07/13 06:10:01;;;;;;;6.28;1.75;;;;;;;;;;5034096;28;20025;-71
2022/07/13 06:12:27;;;;;;;4.15;1.45;;;;;;;;;;5034187;28;20079;-72
2022/07/13 06:14:52;;;;;;;2.85;1.35;;;;;;;;;;5034471;28;20025;-73
2022/07/13 06:17:18;;;;;;;7.03;1.50;;;;;;;;;;5050217;28;20048;-72
2022/07/13 06:19:43;;;;;;;7.38;1.55;;;;;;;;;;5057274;28;20025;-71
2022/07/13 06:22:08;;;;;;;2.70;1.42;;;;;;;;;;5055646;28;20013;-72
2022/07/13 06:24:34;;;;;;;3.20;1.40;;;;;;;;;;5055153;28;20048;-72
2022/07/13 06:26:59;;;;;;;8.43;1.57;;;;;;;;;;5034731;28;20301;-71
2022/07/13 06:29:24;;;;;;;4.60;1.40;;;;;;;;;;5034240;28;20270;-72
2022/07/13 06:31:49;;;;;;;3.20;1.50;;;;;;;;;;5034287;28;20271;-72
2022/07/13 06:34:14;;;;;;;2.53;1.40;;;;;;;;;;5033946;28;20117;-72
2022/07/13 06:36:40;;;;;;;2.67;1.37;;;;;;;;;;5034021;28;20026;-72
2022/07/13 06:39:05;;;;;;;3.97;1.60;;;;;;;;;;5034345;28;20308;-70
2022/07/13 06:41:30;;;;;;;3.80;1.37;;;;;;;;;;5034097;28;20255;-70
2022/07/13 06:43:55;;;;;;;6.40;1.60;;;;;;;;;;5033685;28;20304;-72
2022/07/13 06:46:22;;;;;;;2.13;1.47;;;;;;;;;;5033461;28;20346;-72
2022/07/13 06:48:47;;;;;;;3.17;1.40;;;;;;;;;;4991485;28;985122;-73
2022/07/13 06:51:12;;;;;;;4.77;1.43;;;;;;;;;;5034975;28;20232;-72
2022/07/13 06:53:37;;;;;;;2.20;1.30;;;;;;;;;;5034335;28;20282;-72
2022/07/13 06:56:03;;;;;;;4.60;1.40;;;;;;;;;;5034671;28;20513;-72
2022/07/13 06:58:28;;;;;;;6.00;1.50;;;;;;;;;;5034285;28;20731;-72
2022/07/13 07:00:53;;;;;;;7.80;1.40;;;;;;;;;;5034271;28;20025;-72
2022/07/13 07:03:19;;;;;;;3.90;1.42;;;;;;;;;;5034685;28;20349;-72
2022/07/13 07:05:45;;;;;;;5.15;1.65;;;;;;;;;;5034361;28;20021;-71
2022/07/13 07:08:10;;;;;;;3.78;1.45;;;;;;;;;;5016400;28;20065;-70
2022/07/13 07:10:35;;;;;;;5.72;1.60;;;;;;;;;;5034414;28;20462;-71
2022/07/13 07:13:00;;;;;;;4.20;1.27;;;;;;;;;;5034141;28;20021;-71
2022/07/13 07:15:26;;;;;;;7.87;1.57;;;;;;;;;;5033977;28;20313;-71
2022/07/13 07:18:06;;;;;;;5.43;1.60;;;;;;;;;;5033863;28;20258;-72
2022/07/13 07:20:32;;;;;;;3.15;1.33;;;;;;;;;;5034159;28;20022;-71
2022/07/13 07:22:57;;;;;;;4.20;1.40;;;;;;;;;;5034206;28;20390;-71
2022/07/13 07:25:25;;;;;;;7.97;1.60;;;;;;;;;;5033902;28;20040;-73
2022/07/13 07:27:51;;;;;;;5.45;1.70;;;;;;;;;;5033892;28;20265;-71
2022/07/13 07:30:16;;;;;;;6.30;1.90;;;;;;;;;;5033787;28;20100;-71
2022/07/13 07:32:41;;;;;;;6.07;1.77;;;;;;;;;;5033673;28;20021;-72
2022/07/13 07:35:07;;;;;;;4.78;1.60;;;;;;;;;;5033557;28;20025;-72
2022/07/13 07:37:33;;;;;;;4.03;1.65;;;;;;;;;;5033210;28;20021;-72
2022/07/13 07:39:59;;;;;;;3.88;1.50;;;;;;;;;;5033786;28;20021;-72
2022/07/13 07:42:24;;;;;;;8.83;1.97;;;;;;;;;;5033600;28;20151;-72
2022/07/13 07:44:49;;;;;;;8.18;2.10;;;;;;;;;;5033731;28;20316;-72
2022/07/13 07:47:15;;;;;;;4.90;1.70;;;;;;;;;;5033866;28;20029;-72
2022/07/13 07:49:41;;;;;;;3.63;1.60;;;;;;;;;;5033532;28;20266;-72
2022/07/13 07:52:06;;;;;;;3.70;1.58;;;;;;;;;;5033535;28;20079;-72
2022/07/13 07:54:32;;;;;;;3.53;1.40;;;;;;;;;;5033479;28;20025;-70
2022/07/13 07:56:57;;;;;;;5.22;1.48;;;;;;;;;;5033434;28;20478;-72
2022/07/13 07:59:22;;;;;;;4.95;1.40;;;;;;;;;;5033798;28;20429;-71
2022/07/13 08:01:47;;;;;;;3.45;1.55;;;;;;;;;;5039028;28;20036;-73
2022/07/13 08:04:13;;;;;;;3.88;1.60;;;;;;;;;;5020033;28;20494;-72
2022/07/13 08:06:38;;;;;;;4.18;1.52;;;;;;;;;;5038775;28;20079;-72
2022/07/13 08:09:04;;;;;;;2.10;1.30;;;;;;;;;;5038760;28;20037;-72
2022/07/13 08:11:30;;;;;;;5.13;1.60;;;;;;;;;;5038703;28;20341;-72
2022/07/13 08:13:55;;;;;;;3.17;1.50;;;;;;;;;;5036073;28;20064;-72
2022/07/13 08:16:20;;;;;;;4.15;1.38;;;;;;;;;;5039487;28;20079;-73
2022/07/13 08:18:46;;;;;;;4.90;1.40;;;;;;;;;;5039312;28;20025;-72
2022/07/13 08:21:12;;;;;;;3.50;1.50;;;;;;;;;;5037818;28;20034;-73
2022/07/13 08:23:54;;;;;;;2.28;1.60;;;;;;;;;;5036847;28;20057;-71
2022/07/13 08:26:29;;;;;;;6.15;1.52;;;;;;;;;;5012907;28;20017;-73
2022/07/13 08:28:56;;;;;;;4.97;1.48;;;;;;;;;;5037968;28;20041;-72
2022/07/13 08:31:22;;;;;;;4.25;1.40;;;;;;;;;;5037939;28;20033;-72
2022/07/13 08:39:17;;;;;;;;;;;;;;;;;;5038181;28;20048;-81
2022/07/13 08:41:42;;;;;;;5.47;1.35;;;;;;;;;;5037217;28;19909;-81
2022/07/13 08:44:08;;;;;;;4.50;1.60;;;;;;;;;;5037162;28;20013;-81
2022/07/13 08:46:33;;;;;;;2.05;1.40;;;;;;;;;;5036851;28;20382;-80
2022/07/13 08:49:00;;;;;;;4.78;1.60;;;;;;;;;;5038640;28;20041;-80
2022/07/13 08:51:26;;;;;;;4.57;1.40;;;;;;;;;;5040768;28;20474;-80
2022/07/13 08:53:53;;;;;;;2.00;1.40;;;;;;;;;;5040925;28;20540;-80
2022/07/13 08:56:19;;;;;;;2.08;1.38;;;;;;;;;;5040261;28;20033;-79
2022/07/13 08:58:44;;;;;;;2.78;1.40;;;;;;;;;;5040531;28;20101;-80
2022/07/13 09:01:11;;;;;;;4.90;1.30;;;;;;;;;;5022375;28;20045;-79
2022/07/13 09:03:36;;;;;;;1.65;1.40;;;;;;;;;;5039582;28;20029;-81
2022/07/13 09:06:02;;;;;;;3.75;1.50;;;;;;;;;;5021506;28;20546;-80
2022/07/13 09:08:28;;;;;;;2.88;1.40;;;;;;;;;;5040097;28;20059;-80
2022/07/13 09:10:58;;;;;;;2.85;1.05;;;;;;;;;;5040921;28;20501;-80
2022/07/13 09:13:39;;;;;;;2.92;1.38;;;;;;;;;;5040290;28;20498;-80
2022/07/13 09:16:12;;;;;;;2.05;1.20;;;;;;;;;;5040406;28;20022;-80
2022/07/13 09:18:38;;;;;;;3.88;1.40;;;;;;;;;;5022473;28;20487;-80
2022/07/13 09:21:03;;;;;;;2.47;1.10;;;;;;;;;;5040150;28;20048;-81
2022/07/13 09:23:29;;;;;;;2.63;1.30;;;;;;;;;;5040151;28;20029;-82
2022/07/13 09:25:54;;;;;;;3.42;1.40;;;;;;;;;;5038719;28;20458;-81
2022/07/13 09:28:20;;;;;;;1.80;1.10;;;;;;;;;;5039800;28;20029;-81
2022/07/13 09:30:45;;;;;;;2.15;1.40;;;;;;;;;;5039527;28;20433;-79
2022/07/13 09:33:11;;;;;;;4.45;1.48;;;;;;;;;;5039472;28;20504;-81
2022/07/13 09:35:49;;;;;;;7.78;1.20;;;;;;;;;;5039184;28;20064;-79
2022/07/13 09:38:28;;;;;;;2.25;1.10;;;;;;;;;;5038217;28;20021;-80
2022/07/13 09:40:59;;;;;;;5.05;1.10;;;;;;;;;;5039429;28;20032;-81
2022/07/13 09:46:08;;;;;;;;;;;;;;;;;;5039259;28;20060;-79
2022/07/13 09:48:35;;;;;;;2.22;0.80;;;;;;;;;;5038448;28;19921;-80
2022/07/13 09:51:00;;;;;;;1.10;0.77;;;;;;;;;;5040186;28;20091;-80
2022/07/13 09:53:28;;;;;;;7.10;0.80;;;;;;;;;;5040002;28;20437;-79
2022/07/13 09:55:57;;;;;;;2.47;0.75;;;;;;;;;;5020762;28;20278;-79
2022/07/13 09:58:28;;;;;;;1.02;0.80;;;;;;;;;;5021141;28;20044;-79
2022/07/13 10:00:55;;;;;;;1.92;0.80;;;;;;;;;;5038570;28;20052;-79
2022/07/13 10:03:21;;;;;;;2.67;0.80;;;;;;;;;;5039253;28;20060;-79
2022/07/13 10:05:48;;;;;;;2.50;0.90;;;;;;;;;;5039005;28;20025;-80
2022/07/13 10:08:15;;;;;;;0.90;0.60;;;;;;;;;;5042499;28;20032;-82
2022/07/13 10:10:40;;;;;;;1.20;0.60;;;;;;;;;;5039900;28;20033;-79
2022/07/13 10:13:06;;;;;;;1.73;0.70;;;;;;;;;;5023009;28;20025;-78
2022/07/13 10:15:31;;;;;;;3.08;0.75;;;;;;;;;;5024133;28;20328;-78
2022/07/13 10:18:00;;;;;;;2.30;0.80;;;;;;;;;;5040098;28;20105;-78
2022/07/13 10:20:27;;;;;;;1.15;0.77;;;;;;;;;;5041545;28;20479;-79
2022/07/13 10:22:53;;;;;;;0.60;0.60;;;;;;;;;;5023244;28;20029;-79
2022/07/13 10:25:19;;;;;;;2.92;0.77;;;;;;;;;;5043015;28;20032;-80
2022/07/13 10:27:44;;;;;;;1.13;0.88;;;;;;;;;;5040562;28;20025;-79
2022/07/13 10:30:21;;;;;;;0.80;0.70;;;;;;;;;;5022834;28;20389;-78
2022/07/13 10:32:47;;;;;;;0.68;0.68;;;;;;;;;;5023335;28;20029;-79
2022/07/13 10:35:16;;;;;;;7.40;0.73;;;;;;;;;;5040969;28;20029;-79
2022/07/13 10:38:00;;;;;;;3.90;0.80;;;;;;;;;;5039722;28;20017;-79
2022/07/13 10:40:26;;;;;;;5.13;0.70;;;;;;;;;;5040603;28;20407;-79
2022/07/13 10:42:58;;;;;;;3.45;0.80;;;;;;;;;;5040986;28;20029;-80
2022/07/13 10:45:38;;;;;;;1.98;0.70;;;;;;;;;;5039174;28;20023;-78
2022/07/13 10:48:21;;;;;;;1.02;0.70;;;;;;;;;;5039686;28;20029;-80
2022/07/13 10:50:52;;;;;;;0.73;0.60;;;;;;;;;;5039715;28;20051;-78
2022/07/13 10:53:21;;;;;;;1.83;0.70;;;;;;;;;;5040073;28;20486;-80
2022/07/13 10:55:50;;;;;;;1.92;0.70;;;;;;;;;;5040962;28;20066;-78
2022/07/13 10:58:31;;;;;;;6.93;0.90;;;;;;;;;;5038130;28;20025;-81
2022/07/13 11:01:00;;;;;;;4.18;0.80;;;;;;;;;;5036457;28;20120;-79
2022/07/13 11:03:47;;;;;;;3.65;0.63;;;;;;;;;;5019633;28;20429;-80
2022/07/13 11:06:25;;;;;;;1.00;0.70;;;;;;;;;;5029680;28;20048;-78
2022/07/13 11:09:15;;;;;;;0.73;0.70;;;;;;;;;;5037110;28;20032;-79
2022/07/13 11:11:45;;;;;;;1.75;0.80;;;;;;;;;;5019373;28;20025;-79
2022/07/13 11:14:48;;;;;;;0.93;0.70;;;;;;;;;;5018383;28;20017;-80
2022/07/13 11:17:24;;;;;;;1.20;0.70;;;;;;;;;;5037259;28;20033;-80
2022/07/13 11:19:59;;;;;;;0.95;0.80;;;;;;;;;;5018573;28;20033;-79
2022/07/13 11:22:26;;;;;;;1.38;0.93;;;;;;;;;;5037192;28;20076;-79
2022/07/13 11:25:23;;;;;;;2.05;0.90;;;;;;;;;;5036656;28;20017;-79
2022/07/13 11:28:18;;;;;;;2.45;0.98;;;;;;;;;;4993009;28;20548;-78
2022/07/13 11:30:49;;;;;;;1.55;0.80;;;;;;;;;;5036750;28;20021;-79
2022/07/13 11:33:15;;;;;;;1.52;0.90;;;;;;;;;;5036042;28;20049;-77
2022/07/13 11:35:47;;;;;;;2.53;1.00;;;;;;;;;;5036319;28;20180;-79
2022/07/13 11:38:15;;;;;;;1.52;1.00;;;;;;;;;;5038736;28;20029;-78
2022/07/13 11:40:41;;;;;;;1.23;1.05;;;;;;;;;;5037966;28;20029;-78
2022/07/13 11:43:08;;;;;;;2.88;1.08;;;;;;;;;;5037326;28;20095;-78
2022/07/13 11:45:33;;;;;;;2.58;1.15;;;;;;;;;;5019476;28;20080;-79
2022/07/13 11:48:03;;;;;;;2.08;1.10;;;;;;;;;;5037051;28;20026;-80
2022/07/13 11:50:42;;;;;;;1.63;0.90;;;;;;;;;;5036487;28;20025;-78
2022/07/13 11:53:08;;;;;;;1.08;0.98;;;;;;;;;;5037082;28;20091;-79
2022/07/13 11:55:35;;;;;;;1.48;1.10;;;;;;;;;;5018796;28;20478;-78
2022/07/13 11:58:00;;;;;;;5.38;1.00;;;;;;;;;;5018915;28;20029;-79
2022/07/13 12:00:26;;;;;;;1.40;1.10;;;;;;;;;;5037522;28;20163;-78
2022/07/13 12:02:52;;;;;;;1.35;1.00;;;;;;;;;;5036769;28;20022;-78
2022/07/13 12:05:25;;;;;;;3.45;1.05;;;;;;;;;;5034827;28;20463;-78
2022/07/13 12:08:04;;;;;;;1.75;1.13;;;;;;;;;;5035653;28;20021;-78
2022/07/13 12:10:31;;;;;;;3.20;0.95;;;;;;;;;;5018115;28;20365;-79
2022/07/13 12:12:56;;;;;;;1.25;1.00;;;;;;;;;;5035736;28;20078;-79
2022/07/13 12:15:22;;;;;;;2.92;1.10;;;;;;;;;;5035622;28;20030;-79
2022/07/13 12:17:53;;;;;;;0.82;0.82;;;;;;;;;;5034848;28;20025;-78
2022/07/13 12:20:21;;;;;;;0.98;0.88;;;;;;;;;;5036543;28;20061;-78
2022/07/13 12:22:52;;;;;;;2.40;0.82;;;;;;;;;;5036211;28;20498;-78
2022/07/13 12:25:34;;;;;;;3.63;0.80;;;;;;;;;;5035747;28;20075;-78
2022/07/13 12:28:01;;;;;;;3.05;1.02;;;;;;;;;;5036335;28;20027;-78
2022/07/13 12:30:28;;;;;;;1.75;0.68;;;;;;;;;;5037224;28;20025;-77
2022/07/13 12:33:02;;;;;;;1.77;0.90;;;;;;;;;;5037791;28;20026;-78
2022/07/13 12:35:29;;;;;;;3.95;0.90;;;;;;;;;;5036880;28;20025;-77
2022/07/13 12:37:56;;;;;;;1.45;0.80;;;;;;;;;;5035576;28;20375;-80
2022/07/13 12:40:40;;;;;;;3.30;0.75;;;;;;;;;;5037846;28;20049;-79
2022/07/13 12:43:25;;;;;;;1.15;0.80;;;;;;;;;;5037819;28;20025;-79
2022/07/13 12:45:52;;;;;;;2.00;0.90;;;;;;;;;;5038354;28;20022;-78
2022/07/13 12:48:19;;;;;;;4.57;0.88;;;;;;;;;;5013246;28;20056;-78
2022/07/13 12:51:00;;;;;;;3.88;0.80;;;;;;;;;;5034649;28;20026;-78
2022/07/13 12:53:43;;;;;;;2.47;0.90;;;;;;;;;;5036831;28;20029;-80
2022/07/13 12:56:09;;;;;;;;;;;;;;;;;;5020369;28;20024;-78
2022/07/13 12:58:55;;;;;;;0.90;0.70;;;;;;;;;;5036501;28;19976;-79
2022/07/13 13:01:35;;;;;;;3.30;1.00;;;;;;;;;;5036264;28;20112;-77
2022/07/13 13:04:01;;;;;;;2.47;0.80;;;;;;;;;;5036306;28;20047;-79
2022/07/13 13:06:27;;;;;;;3.22;0.90;;;;;;;;;;5018066;28;20065;-79
2022/07/13 13:09:27;;;;;;;6.00;0.90;;;;;;;;;;5036022;28;20171;-79
2022/07/13 13:11:52;;;;;;;1.88;1.00;;;;;;;;;;4967277;28;20275;-78
2022/07/13 13:14:18;;;;;;;4.33;0.90;;;;;;;;;;5037039;28;20439;-78
2022/07/13 13:16:44;;;;;;;1.50;0.77;;;;;;;;;;5036723;28;20467;-79
2022/07/13 13:19:10;;;;;;;2.95;0.70;;;;;;;;;;5036957;28;20075;-78
2022/07/13 13:21:36;;;;;;;4.43;0.90;;;;;;;;;;5036583;28;20091;-80
2022/07/13 13:24:05;;;;;;;3.47;0.80;;;;;;;;;;5036494;28;20069;-77
2022/07/13 13:26:31;;;;;;;3.35;0.90;;;;;;;;;;5037007;28;20022;-78
2022/07/13 13:31:40;;;;;;;;;;;;;;;;;;5037341;28;20265;-80
2022/07/13 13:34:05;;;;;;;2.80;0.70;;;;;;;;;;5034981;28;19909;-79
2022/07/13 13:36:30;;;;;;;6.57;0.90;;;;;;;;;;5038306;28;20030;-79
2022/07/13 13:38:55;;;;;;;4.13;0.80;;;;;;;;;;5040050;28;20032;-78
2022/07/13 13:41:20;;;;;;;2.07;1.00;;;;;;;;;;5040185;28;20022;-79
2022/07/13 13:43:46;;;;;;;3.77;0.90;;;;;;;;;;5040308;28;20032;-77
2022/07/13 13:46:11;;;;;;;0.90;0.80;;;;;;;;;;5040271;28;20251;-77
2022/07/13 13:48:36;;;;;;;2.27;0.90;;;;;;;;;;5039974;28;20064;-77
2022/07/13 13:51:02;;;;;;;1.80;0.70;;;;;;;;;;5022309;28;20026;-78
2022/07/13 13:53:27;;;;;;;4.93;1.00;;;;;;;;;;5039535;28;20036;-78
2022/07/13 13:55:52;;;;;;;5.03;0.93;;;;;;;;;;5039521;28;20056;-78
2022/07/13 13:58:18;;;;;;;3.25;0.80;;;;;;;;;;5021856;28;20255;-79
2022/07/13 14:00:43;;;;;;;4.82;0.90;;;;;;;;;;5040653;28;20120;-78
2022/07/13 14:03:09;;;;;;;0.63;0.60;;;;;;;;;;5040298;28;20036;-79
2022/07/13 14:05:34;;;;;;;1.42;0.70;;;;;;;;;;5039993;28;20026;-78
2022/07/13 14:07:59;;;;;;;2.38;1.00;;;;;;;;;;5040972;28;20485;-78
2022/07/13 14:10:24;;;;;;;4.30;1.00;;;;;;;;;;5040149;28;20021;-78
2022/07/13 14:12:51;;;;;;;1.52;0.80;;;;;;;;;;5039883;28;20774;-79
2022/07/13 14:15:17;;;;;;;1.73;0.75;;;;;;;;;;5039530;28;20026;-78
2022/07/13 14:17:42;;;;;;;3.22;0.60;;;;;;;;;;5021634;28;20474;-78
2022/07/13 14:20:10;;;;;;;1.00;0.80;;;;;;;;;;5040384;28;20021;-79
2022/07/13 14:22:36;;;;;;;2.88;0.90;;;;;;;;;;5040672;28;20017;-78
2022/07/13 14:25:01;;;;;;;1.95;0.90;;;;;;;;;;5021963;28;20036;-80
2022/07/13 14:27:27;;;;;;;5.05;1.05;;;;;;;;;;5039584;28;20033;-79
2022/07/13 14:29:53;;;;;;;0.90;0.80;;;;;;;;;;5040127;28;20037;-79
2022/07/13 14:32:21;;;;;;;2.75;0.90;;;;;;;;;;5039709;28;20036;-79
2022/07/13 14:34:48;;;;;;;3.65;1.00;;;;;;;;;;5022061;28;20116;-79
2022/07/13 14:37:16;;;;;;;3.28;1.05;;;;;;;;;;5039298;28;20025;-78
2022/07/13 14:39:41;;;;;;;7.18;0.88;;;;;;;;;;5021790;28;20474;-79
2022/07/13 14:42:07;;;;;;;1.48;0.90;;;;;;;;;;5040109;28;20025;-80
2022/07/13 14:44:32;;;;;;;4.40;1.00;;;;;;;;;;5039177;28;20052;-80
2022/07/13 14:46:57;;;;;;;3.67;0.70;;;;;;;;;;5038134;28;20270;-78
2022/07/13 14:49:23;;;;;;;0.80;0.60;;;;;;;;;;5020019;28;20265;-79
2022/07/13 14:51:48;;;;;;;3.60;1.00;;;;;;;;;;5038501;28;20029;-80
2022/07/13 14:54:13;;;;;;;2.30;1.00;;;;;;;;;;5021364;28;20778;-79